sensor_id;sensor_type;location;lat;lon;timestamp;temperature;humidity
63407;SHT31;49543;45.892;10.838;2022-08-01T00:01:33;25.01;64.01
63407;SHT31;49543;45.892;10.838;2022-08-01T00:03:58;24.99;63.69
63407;SHT31;49543;45.892;10.838;2022-08-01T00:06:24;24.94;63.59
63407;SHT31;49543;45.892;10.838;2022-08-01T00:08:50;24.95;64.21
63407;SHT31;49543;45.892;10.838;2022-08-01T00:11:15;24.88;63.89
63407;SHT31;49543;45.892;10.838;2022-08-01T00:13:41;24.84;64.27
63407;SHT31;49543;45.892;10.838;2022-08-01T00:16:06;24.73;65.37
63407;SHT31;49543;45.892;10.838;2022-08-01T00:18:32;24.61;65.97
63407;SHT31;49543;45.892;10.838;2022-08-01T00:20:57;24.61;66.95
63407;SHT31;49543;45.892;10.838;2022-08-01T00:23:23;24.64;66.56
63407;SHT31;49543;45.892;10.838;2022-08-01T00:25:48;24.68;66.14
63407;SHT31;49543;45.892;10.838;2022-08-01T00:28:14;24.68;64.89
63407;SHT31;49543;45.892;10.838;2022-08-01T00:30:39;24.70;65.99
63407;SHT31;49543;45.892;10.838;2022-08-01T00:33:05;24.74;65.46
63407;SHT31;49543;45.892;10.838;2022-08-01T00:35:30;24.71;65.56
63407;SHT31;49543;45.892;10.838;2022-08-01T00:37:56;24.71;66.56
63407;SHT31;49543;45.892;10.838;2022-08-01T00:40:21;24.68;65.34
63407;SHT31;49543;45.892;10.838;2022-08-01T00:42:47;24.64;65.01
63407;SHT31;49543;45.892;10.838;2022-08-01T00:45:30;24.67;65.02
63407;SHT31;49543;45.892;10.838;2022-08-01T00:47:56;24.68;65.10
63407;SHT31;49543;45.892;10.838;2022-08-01T00:50:21;24.68;64.99
63407;SHT31;49543;45.892;10.838;2022-08-01T00:52:48;24.68;65.42
63407;SHT31;49543;45.892;10.838;2022-08-01T00:55:15;24.67;65.50
63407;SHT31;49543;45.892;10.838;2022-08-01T00:57:41;24.71;65.72
63407;SHT31;49543;45.892;10.838;2022-08-01T01:00:07;24.67;65.73
63407;SHT31;49543;45.892;10.838;2022-08-01T01:02:33;24.61;64.63
63407;SHT31;49543;45.892;10.838;2022-08-01T01:05:00;24.64;65.38
63407;SHT31;49543;45.892;10.838;2022-08-01T01:10:03;24.59;66.42
63407;SHT31;49543;45.892;10.838;2022-08-01T01:18:02;24.46;66.25
63407;SHT31;49543;45.892;10.838;2022-08-01T01:20:32;24.49;66.31
63407;SHT31;49543;45.892;10.838;2022-08-01T01:29:04;24.33;66.58
63407;SHT31;49543;45.892;10.838;2022-08-01T01:31:33;24.27;66.03
63407;SHT31;49543;45.892;10.838;2022-08-01T01:34:02;24.26;64.97
63407;SHT31;49543;45.892;10.838;2022-08-01T01:36:30;24.25;64.37
63407;SHT31;49543;45.892;10.838;2022-08-01T01:38:56;24.26;64.98
63407;SHT31;49543;45.892;10.838;2022-08-01T01:41:23;24.23;65.28
63407;SHT31;49543;45.892;10.838;2022-08-01T01:43:49;24.23;66.30
63407;SHT31;49543;45.892;10.838;2022-08-01T01:46:18;24.16;66.70
63407;SHT31;49543;45.892;10.838;2022-08-01T01:48:48;24.15;66.72
63407;SHT31;49543;45.892;10.838;2022-08-01T01:51:15;24.19;66.86
63407;SHT31;49543;45.892;10.838;2022-08-01T01:53:41;24.19;65.32
63407;SHT31;49543;45.892;10.838;2022-08-01T01:56:09;24.23;65.79
63407;SHT31;49543;45.892;10.838;2022-08-01T01:58:35;24.22;66.74
63407;SHT31;49543;45.892;10.838;2022-08-01T02:01:05;24.18;66.94
63407;SHT31;49543;45.892;10.838;2022-08-01T02:03:32;24.16;66.23
63407;SHT31;49543;45.892;10.838;2022-08-01T02:06:02;24.12;66.93
63407;SHT31;49543;45.892;10.838;2022-08-01T02:08:29;24.10;66.59
63407;SHT31;49543;45.892;10.838;2022-08-01T02:10:56;24.05;66.41
63407;SHT31;49543;45.892;10.838;2022-08-01T02:13:42;24.04;66.59
63407;SHT31;49543;45.892;10.838;2022-08-01T02:16:08;23.99;66.57
63407;SHT31;49543;45.892;10.838;2022-08-01T02:18:36;23.95;66.89
63407;SHT31;49543;45.892;10.838;2022-08-01T02:21:04;23.95;67.00
63407;SHT31;49543;45.892;10.838;2022-08-01T02:23:32;23.92;66.97
63407;SHT31;49543;45.892;10.838;2022-08-01T02:26:00;23.97;66.83
63407;SHT31;49543;45.892;10.838;2022-08-01T02:28:37;23.97;67.34
63407;SHT31;49543;45.892;10.838;2022-08-01T02:31:08;23.97;66.32
63407;SHT31;49543;45.892;10.838;2022-08-01T02:33:46;23.94;67.05
63407;SHT31;49543;45.892;10.838;2022-08-01T02:36:16;23.89;67.27
63407;SHT31;49543;45.892;10.838;2022-08-01T02:38:44;23.86;66.53
63407;SHT31;49543;45.892;10.838;2022-08-01T02:41:19;23.85;66.37
63407;SHT31;49543;45.892;10.838;2022-08-01T02:43:50;23.85;65.66
63407;SHT31;49543;45.892;10.838;2022-08-01T02:46:25;23.82;64.01
63407;SHT31;49543;45.892;10.838;2022-08-01T02:48:53;23.78;64.29
63407;SHT31;49543;45.892;10.838;2022-08-01T02:51:21;23.84;65.80
63407;SHT31;49543;45.892;10.838;2022-08-01T02:53:49;23.79;66.34
63407;SHT31;49543;45.892;10.838;2022-08-01T02:56:17;23.74;66.24
63407;SHT31;49543;45.892;10.838;2022-08-01T02:58:44;23.71;67.07
63407;SHT31;49543;45.892;10.838;2022-08-01T03:01:11;23.61;67.67
63407;SHT31;49543;45.892;10.838;2022-08-01T03:03:38;23.55;68.01
63407;SHT31;49543;45.892;10.838;2022-08-01T03:06:05;23.54;68.05
63407;SHT31;49543;45.892;10.838;2022-08-01T03:08:31;23.51;67.76
63407;SHT31;49543;45.892;10.838;2022-08-01T03:10:59;23.51;68.04
63407;SHT31;49543;45.892;10.838;2022-08-01T03:13:25;23.55;68.54
63407;SHT31;49543;45.892;10.838;2022-08-01T03:15:54;23.55;67.74
63407;SHT31;49543;45.892;10.838;2022-08-01T03:18:22;23.54;67.81
63407;SHT31;49543;45.892;10.838;2022-08-01T03:20:50;23.49;67.47
63407;SHT31;49543;45.892;10.838;2022-08-01T03:23:17;23.46;66.85
63407;SHT31;49543;45.892;10.838;2022-08-01T03:25:44;23.43;67.47
63407;SHT31;49543;45.892;10.838;2022-08-01T03:28:13;23.40;68.21
63407;SHT31;49543;45.892;10.838;2022-08-01T03:30:40;23.43;68.62
63407;SHT31;49543;45.892;10.838;2022-08-01T03:33:07;23.40;67.26
63407;SHT31;49543;45.892;10.838;2022-08-01T03:35:37;23.39;67.54
63407;SHT31;49543;45.892;10.838;2022-08-01T03:38:03;23.37;67.44
63407;SHT31;49543;45.892;10.838;2022-08-01T03:40:51;23.34;67.84
63407;SHT31;49543;45.892;10.838;2022-08-01T03:43:38;23.34;68.45
63407;SHT31;49543;45.892;10.838;2022-08-01T03:46:07;23.31;68.40
63407;SHT31;49543;45.892;10.838;2022-08-01T03:48:38;23.31;68.33
63407;SHT31;49543;45.892;10.838;2022-08-01T03:51:05;23.30;68.38
63407;SHT31;49543;45.892;10.838;2022-08-01T03:53:33;23.27;68.10
63407;SHT31;49543;45.892;10.838;2022-08-01T03:56:00;23.30;67.98
63407;SHT31;49543;45.892;10.838;2022-08-01T03:58:28;23.30;67.74
63407;SHT31;49543;45.892;10.838;2022-08-01T04:00:54;23.30;67.60
63407;SHT31;49543;45.892;10.838;2022-08-01T04:03:20;23.28;68.02
63407;SHT31;49543;45.892;10.838;2022-08-01T04:05:45;23.28;68.28
63407;SHT31;49543;45.892;10.838;2022-08-01T04:08:11;23.27;67.99
63407;SHT31;49543;45.892;10.838;2022-08-01T04:10:37;23.33;67.48
63407;SHT31;49543;45.892;10.838;2022-08-01T04:13:02;23.33;67.11
63407;SHT31;49543;45.892;10.838;2022-08-01T04:15:28;23.33;67.61
63407;SHT31;49543;45.892;10.838;2022-08-01T04:17:53;23.31;68.27
63407;SHT31;49543;45.892;10.838;2022-08-01T04:20:20;23.33;68.31
63407;SHT31;49543;45.892;10.838;2022-08-01T04:22:46;23.39;68.02
63407;SHT31;49543;45.892;10.838;2022-08-01T04:25:16;23.37;67.34
63407;SHT31;49543;45.892;10.838;2022-08-01T04:27:46;23.42;67.32
63407;SHT31;49543;45.892;10.838;2022-08-01T04:30:25;23.49;68.09
63407;SHT31;49543;45.892;10.838;2022-08-01T04:32:52;23.43;68.31
63407;SHT31;49543;45.892;10.838;2022-08-01T04:35:20;23.43;68.29
63407;SHT31;49543;45.892;10.838;2022-08-01T04:37:48;23.43;68.20
63407;SHT31;49543;45.892;10.838;2022-08-01T04:40:14;23.43;68.15
63407;SHT31;49543;45.892;10.838;2022-08-01T04:42:41;23.42;68.05
63407;SHT31;49543;45.892;10.838;2022-08-01T04:45:09;23.42;68.03
63407;SHT31;49543;45.892;10.838;2022-08-01T04:47:36;23.47;67.94
63407;SHT31;49543;45.892;10.838;2022-08-01T04:50:05;23.51;68.34
63407;SHT31;49543;45.892;10.838;2022-08-01T04:52:36;23.46;68.04
63407;SHT31;49543;45.892;10.838;2022-08-01T04:55:03;23.43;68.26
63407;SHT31;49543;45.892;10.838;2022-08-01T04:57:29;23.43;68.18
63407;SHT31;49543;45.892;10.838;2022-08-01T04:59:54;23.34;67.75
63407;SHT31;49543;45.892;10.838;2022-08-01T05:02:22;23.37;68.98
63407;SHT31;49543;45.892;10.838;2022-08-01T05:04:48;23.42;70.78
63407;SHT31;49543;45.892;10.838;2022-08-01T05:07:14;23.39;69.28
63407;SHT31;49543;45.892;10.838;2022-08-01T05:09:41;23.37;69.10
63407;SHT31;49543;45.892;10.838;2022-08-01T05:12:07;23.46;68.05
63407;SHT31;49543;45.892;10.838;2022-08-01T05:14:34;23.53;66.06
63407;SHT31;49543;45.892;10.838;2022-08-01T05:17:01;23.63;65.44
63407;SHT31;49543;45.892;10.838;2022-08-01T05:19:32;23.72;65.57
63407;SHT31;49543;45.892;10.838;2022-08-01T05:21:59;23.82;66.07
63407;SHT31;49543;45.892;10.838;2022-08-01T05:24:26;24.04;64.07
63407;SHT31;49543;45.892;10.838;2022-08-01T05:26:54;24.08;64.17
63407;SHT31;49543;45.892;10.838;2022-08-01T05:29:20;24.10;63.57
63407;SHT31;49543;45.892;10.838;2022-08-01T05:31:45;24.18;63.83
63407;SHT31;49543;45.892;10.838;2022-08-01T05:34:11;24.23;63.48
63407;SHT31;49543;45.892;10.838;2022-08-01T05:36:36;24.32;63.87
63407;SHT31;49543;45.892;10.838;2022-08-01T05:39:03;24.44;63.93
63407;SHT31;49543;45.892;10.838;2022-08-01T05:41:30;24.57;64.04
63407;SHT31;49543;45.892;10.838;2022-08-01T05:43:55;24.68;63.53
63407;SHT31;49543;45.892;10.838;2022-08-01T05:46:21;24.84;63.13
63407;SHT31;49543;45.892;10.838;2022-08-01T05:48:46;24.88;63.40
63407;SHT31;49543;45.892;10.838;2022-08-01T05:51:12;25.02;62.96
63407;SHT31;49543;45.892;10.838;2022-08-01T05:53:37;25.08;63.01
63407;SHT31;49543;45.892;10.838;2022-08-01T05:56:03;25.19;62.32
63407;SHT31;49543;45.892;10.838;2022-08-01T05:58:28;25.29;62.13
63407;SHT31;49543;45.892;10.838;2022-08-01T06:00:54;25.39;61.35
63407;SHT31;49543;45.892;10.838;2022-08-01T06:03:19;25.50;61.42
63407;SHT31;49543;45.892;10.838;2022-08-01T06:05:45;25.60;61.59
63407;SHT31;49543;45.892;10.838;2022-08-01T06:08:10;25.70;61.35
63407;SHT31;49543;45.892;10.838;2022-08-01T06:10:36;25.81;61.03
63407;SHT31;49543;45.892;10.838;2022-08-01T06:13:01;25.90;60.67
63407;SHT31;49543;45.892;10.838;2022-08-01T06:15:31;26.02;60.59
63407;SHT31;49543;45.892;10.838;2022-08-01T06:17:57;26.17;60.54
63407;SHT31;49543;45.892;10.838;2022-08-01T09:31:43;33.36;44.24
63407;SHT31;49543;45.892;10.838;2022-08-01T09:34:08;33.36;44.31
63407;SHT31;49543;45.892;10.838;2022-08-01T09:39:14;33.76;44.91
63407;SHT31;49543;45.892;10.838;2022-08-01T09:41:40;33.85;44.65
63407;SHT31;49543;45.892;10.838;2022-08-01T09:44:06;33.89;44.05
63407;SHT31;49543;45.892;10.838;2022-08-01T09:46:31;33.96;43.74
63407;SHT31;49543;45.892;10.838;2022-08-01T09:49:02;34.00;44.13
63407;SHT31;49543;45.892;10.838;2022-08-01T09:51:38;34.10;43.95
63407;SHT31;49543;45.892;10.838;2022-08-01T09:54:06;34.24;44.56
63407;SHT31;49543;45.892;10.838;2022-08-01T09:56:41;34.37;44.53
63407;SHT31;49543;45.892;10.838;2022-08-01T09:59:08;34.43;44.42
63407;SHT31;49543;45.892;10.838;2022-08-01T10:01:46;34.54;42.95
63407;SHT31;49543;45.892;10.838;2022-08-01T10:04:21;34.20;42.39
63407;SHT31;49543;45.892;10.838;2022-08-01T10:06:49;34.16;43.45
63407;SHT31;49543;45.892;10.838;2022-08-01T10:09:31;34.04;43.97
63407;SHT31;49543;45.892;10.838;2022-08-01T10:11:59;33.82;43.67
63407;SHT31;49543;45.892;10.838;2022-08-01T10:14:25;33.83;44.58
63407;SHT31;49543;45.892;10.838;2022-08-01T10:16:53;33.82;44.44
63407;SHT31;49543;45.892;10.838;2022-08-01T10:19:22;34.09;44.68
63407;SHT31;49543;45.892;10.838;2022-08-01T10:21:50;33.63;44.26
63407;SHT31;49543;45.892;10.838;2022-08-01T10:24:22;33.53;45.23
63407;SHT31;49543;45.892;10.838;2022-08-01T10:26:52;33.72;44.57
63407;SHT31;49543;45.892;10.838;2022-08-01T10:29:19;33.83;45.57
63407;SHT31;49543;45.892;10.838;2022-08-01T10:31:46;33.97;44.60
63407;SHT31;49543;45.892;10.838;2022-08-01T10:34:13;33.94;45.57
63407;SHT31;49543;45.892;10.838;2022-08-01T10:36:44;34.11;44.10
63407;SHT31;49543;45.892;10.838;2022-08-01T10:39:11;34.65;43.87
63407;SHT31;49543;45.892;10.838;2022-08-01T10:41:40;34.66;43.50
63407;SHT31;49543;45.892;10.838;2022-08-01T10:44:07;34.61;42.76
63407;SHT31;49543;45.892;10.838;2022-08-01T10:46:34;35.55;42.74
63407;SHT31;49543;45.892;10.838;2022-08-01T10:49:10;36.25;40.71
63407;SHT31;49543;45.892;10.838;2022-08-01T10:51:37;37.23;40.51
63407;SHT31;49543;45.892;10.838;2022-08-01T10:54:08;38.18;38.57
63407;SHT31;49543;45.892;10.838;2022-08-01T10:56:48;38.59;37.26
63407;SHT31;49543;45.892;10.838;2022-08-01T10:59:20;38.17;38.43
63407;SHT31;49543;45.892;10.838;2022-08-01T11:01:56;38.42;37.68
63407;SHT31;49543;45.892;10.838;2022-08-01T11:04:44;37.74;38.06
63407;SHT31;49543;45.892;10.838;2022-08-01T11:07:24;38.82;37.45
63407;SHT31;49543;45.892;10.838;2022-08-01T11:12:45;38.39;37.22
63407;SHT31;49543;45.892;10.838;2022-08-01T11:17:38;37.40;38.31
63407;SHT31;49543;45.892;10.838;2022-08-01T11:20:11;37.21;38.30
63407;SHT31;49543;45.892;10.838;2022-08-01T11:30:45;36.57;39.71
63407;SHT31;49543;45.892;10.838;2022-08-01T11:33:12;36.47;40.34
63407;SHT31;49543;45.892;10.838;2022-08-01T11:43:35;37.69;39.64
63407;SHT31;49543;45.892;10.838;2022-08-01T16:53:43;31.34;58.19
63407;SHT31;49543;45.892;10.838;2022-08-01T16:56:09;31.34;57.70
63407;SHT31;49543;45.892;10.838;2022-08-01T16:58:34;31.27;57.63
63407;SHT31;49543;45.892;10.838;2022-08-01T17:01:00;31.25;58.17
63407;SHT31;49543;45.892;10.838;2022-08-01T17:03:25;31.11;59.05
63407;SHT31;49543;45.892;10.838;2022-08-01T17:05:51;31.11;57.56
63407;SHT31;49543;45.892;10.838;2022-08-01T17:08:16;31.06;56.97
63407;SHT31;49543;45.892;10.838;2022-08-01T17:10:42;31.11;56.26
63407;SHT31;49543;45.892;10.838;2022-08-01T17:13:07;31.15;56.66
63407;SHT31;49543;45.892;10.838;2022-08-01T17:15:33;31.06;56.87
63407;SHT31;49543;45.892;10.838;2022-08-01T17:18:00;31.12;55.23
63407;SHT31;49543;45.892;10.838;2022-08-01T17:20:26;31.13;54.51
63407;SHT31;49543;45.892;10.838;2022-08-01T17:22:51;31.16;53.04
63407;SHT31;49543;45.892;10.838;2022-08-01T17:25:17;31.21;53.34
63407;SHT31;49543;45.892;10.838;2022-08-01T17:27:43;31.19;53.78
63407;SHT31;49543;45.892;10.838;2022-08-01T17:30:09;31.18;54.80
63407;SHT31;49543;45.892;10.838;2022-08-01T17:32:34;31.18;54.96
63407;SHT31;49543;45.892;10.838;2022-08-01T17:35:01;31.13;54.84
63407;SHT31;49543;45.892;10.838;2022-08-01T17:37:26;31.13;54.65
63407;SHT31;49543;45.892;10.838;2022-08-01T17:39:52;30.99;55.06
63407;SHT31;49543;45.892;10.838;2022-08-01T17:42:17;30.89;54.64
63407;SHT31;49543;45.892;10.838;2022-08-01T17:44:43;30.84;55.79
63407;SHT31;49543;45.892;10.838;2022-08-01T17:47:08;30.81;56.64
63407;SHT31;49543;45.892;10.838;2022-08-01T17:49:33;30.67;55.78
63407;SHT31;49543;45.892;10.838;2022-08-01T17:51:59;30.61;55.06
63407;SHT31;49543;45.892;10.838;2022-08-01T17:54:24;30.63;55.07
63407;SHT31;49543;45.892;10.838;2022-08-01T17:56:50;30.68;55.04
63407;SHT31;49543;45.892;10.838;2022-08-01T17:59:15;30.75;51.90
63407;SHT31;49543;45.892;10.838;2022-08-01T18:01:41;30.77;53.74
63407;SHT31;49543;45.892;10.838;2022-08-01T18:04:06;30.79;54.26
63407;SHT31;49543;45.892;10.838;2022-08-01T18:06:31;30.82;55.67
63407;SHT31;49543;45.892;10.838;2022-08-01T18:08:57;30.84;54.24
63407;SHT31;49543;45.892;10.838;2022-08-01T18:11:23;30.78;54.79
63407;SHT31;49543;45.892;10.838;2022-08-01T18:13:49;30.72;55.50
63407;SHT31;49543;45.892;10.838;2022-08-01T18:16:15;30.68;55.28
63407;SHT31;49543;45.892;10.838;2022-08-01T18:18:49;30.65;54.87
63407;SHT31;49543;45.892;10.838;2022-08-01T18:21:14;30.63;55.45
63407;SHT31;49543;45.892;10.838;2022-08-01T18:23:40;30.60;56.08
63407;SHT31;49543;45.892;10.838;2022-08-01T18:26:06;30.53;55.92
63407;SHT31;49543;45.892;10.838;2022-08-01T18:28:33;30.44;55.53
63407;SHT31;49543;45.892;10.838;2022-08-01T18:31:08;30.36;55.53
63407;SHT31;49543;45.892;10.838;2022-08-01T18:33:36;30.36;55.55
63407;SHT31;49543;45.892;10.838;2022-08-01T18:36:02;30.31;54.74
63407;SHT31;49543;45.892;10.838;2022-08-01T18:38:28;30.37;54.56
63407;SHT31;49543;45.892;10.838;2022-08-01T18:40:54;30.41;55.41
63407;SHT31;49543;45.892;10.838;2022-08-01T18:43:19;30.33;54.68
63407;SHT31;49543;45.892;10.838;2022-08-01T18:45:45;30.10;54.06
63407;SHT31;49543;45.892;10.838;2022-08-01T18:48:10;30.10;51.23
63407;SHT31;49543;45.892;10.838;2022-08-01T18:50:36;30.10;53.93
63407;SHT31;49543;45.892;10.838;2022-08-01T18:53:01;30.12;54.91
63407;SHT31;49543;45.892;10.838;2022-08-01T18:55:27;30.01;55.35
63407;SHT31;49543;45.892;10.838;2022-08-01T18:57:52;29.90;55.58
63407;SHT31;49543;45.892;10.838;2022-08-01T19:00:18;29.90;55.16
63407;SHT31;49543;45.892;10.838;2022-08-01T19:02:43;29.90;55.89
63407;SHT31;49543;45.892;10.838;2022-08-01T19:05:09;29.81;55.79
63407;SHT31;49543;45.892;10.838;2022-08-01T19:07:35;29.65;55.87
63407;SHT31;49543;45.892;10.838;2022-08-01T19:10:02;29.58;56.15
63407;SHT31;49543;45.892;10.838;2022-08-01T19:12:28;29.59;57.94
63407;SHT31;49543;45.892;10.838;2022-08-01T19:14:54;29.58;57.39
63407;SHT31;49543;45.892;10.838;2022-08-01T19:17:19;29.59;56.21
63407;SHT31;49543;45.892;10.838;2022-08-01T19:19:46;29.53;54.26
63407;SHT31;49543;45.892;10.838;2022-08-01T19:22:12;29.40;54.56
63407;SHT31;49543;45.892;10.838;2022-08-01T19:24:37;29.35;55.96
63407;SHT31;49543;45.892;10.838;2022-08-01T19:27:05;29.37;56.13
63407;SHT31;49543;45.892;10.838;2022-08-01T19:29:33;29.27;56.48
63407;SHT31;49543;45.892;10.838;2022-08-01T19:32:00;29.13;55.34
63407;SHT31;49543;45.892;10.838;2022-08-01T19:34:26;29.14;56.51
63407;SHT31;49543;45.892;10.838;2022-08-01T19:36:55;29.09;56.71
63407;SHT31;49543;45.892;10.838;2022-08-01T19:39:22;28.99;57.24
63407;SHT31;49543;45.892;10.838;2022-08-01T19:41:51;28.92;58.38
63407;SHT31;49543;45.892;10.838;2022-08-01T19:44:25;28.90;58.61
63407;SHT31;49543;45.892;10.838;2022-08-01T19:46:54;28.92;58.05
63407;SHT31;49543;45.892;10.838;2022-08-01T19:49:21;29.03;56.21
63407;SHT31;49543;45.892;10.838;2022-08-01T19:51:49;29.07;55.81
63407;SHT31;49543;45.892;10.838;2022-08-01T19:54:18;29.10;56.65
63407;SHT31;49543;45.892;10.838;2022-08-01T19:56:45;29.03;55.29
63407;SHT31;49543;45.892;10.838;2022-08-01T19:59:19;29.00;57.59
63407;SHT31;49543;45.892;10.838;2022-08-01T20:01:47;29.03;57.43
63407;SHT31;49543;45.892;10.838;2022-08-01T20:04:14;29.00;57.08
63407;SHT31;49543;45.892;10.838;2022-08-01T20:06:40;28.99;57.56
63407;SHT31;49543;45.892;10.838;2022-08-01T20:09:06;28.98;57.24
63407;SHT31;49543;45.892;10.838;2022-08-01T20:11:33;28.90;57.94
63407;SHT31;49543;45.892;10.838;2022-08-01T20:13:59;28.82;58.22
63407;SHT31;49543;45.892;10.838;2022-08-01T20:16:26;28.80;58.73
63407;SHT31;49543;45.892;10.838;2022-08-01T20:18:53;28.82;58.04
63407;SHT31;49543;45.892;10.838;2022-08-01T20:21:19;28.80;57.87
63407;SHT31;49543;45.892;10.838;2022-08-01T20:23:46;28.80;57.06
63407;SHT31;49543;45.892;10.838;2022-08-01T20:26:14;28.75;56.49
63407;SHT31;49543;45.892;10.838;2022-08-01T20:28:46;28.71;56.90
63407;SHT31;49543;45.892;10.838;2022-08-01T20:31:13;28.61;59.24
63407;SHT31;49543;45.892;10.838;2022-08-01T20:33:44;28.61;58.07
63407;SHT31;49543;45.892;10.838;2022-08-01T20:36:10;28.61;57.52
63407;SHT31;49543;45.892;10.838;2022-08-01T20:38:39;28.48;57.73
63407;SHT31;49543;45.892;10.838;2022-08-01T20:41:05;28.44;56.61
63407;SHT31;49543;45.892;10.838;2022-08-01T20:43:31;28.47;58.04
63407;SHT31;49543;45.892;10.838;2022-08-01T20:45:57;28.45;58.02
63407;SHT31;49543;45.892;10.838;2022-08-01T20:48:26;28.47;58.63
63407;SHT31;49543;45.892;10.838;2022-08-01T20:50:51;28.47;58.89
63407;SHT31;49543;45.892;10.838;2022-08-01T20:53:37;28.41;59.16
63407;SHT31;49543;45.892;10.838;2022-08-01T20:56:19;28.43;58.82
63407;SHT31;49543;45.892;10.838;2022-08-01T20:59:02;28.37;59.64
63407;SHT31;49543;45.892;10.838;2022-08-01T21:02:00;28.31;58.94
63407;SHT31;49543;45.892;10.838;2022-08-01T21:09:37;28.11;60.55
63407;SHT31;49543;45.892;10.838;2022-08-01T21:12:04;28.10;60.74
63407;SHT31;49543;45.892;10.838;2022-08-01T21:20:04;27.97;60.50
63407;SHT31;49543;45.892;10.838;2022-08-01T21:25:17;27.99;59.94
63407;SHT31;49543;45.892;10.838;2022-08-01T21:27:50;27.96;60.08
63407;SHT31;49543;45.892;10.838;2022-08-01T21:30:16;27.93;60.04
63407;SHT31;49543;45.892;10.838;2022-08-01T21:32:41;27.86;59.89
63407;SHT31;49543;45.892;10.838;2022-08-01T21:35:07;27.89;59.45
